Time;durP1;ratioP1;P1;durP2;ratioP2;P2;SDS_P1;SDS_P2;PMS_P1;PMS_P2;Temp;Humidity;BMP_temperature;BMP_pressure;BME280_temperature;BME280_humidity;BME280_pressure;Samples;Min_cycle;Max_cycle;Signal;HPM_P1;HPM_P2
2021/03/21 00:00:22;;;;;;;5.78;4.47;;;6.70;99.90;;;;;;5097279;28;20051;-89
2021/03/21 00:02:47;;;;;;;6.00;5.15;;;6.80;99.90;;;;;;5079149;28;20055;-88
2021/03/21 00:05:13;;;;;;;6.43;5.15;;;6.70;99.90;;;;;;5078951;28;20060;-88
2021/03/21 00:07:38;;;;;;;8.48;4.88;;;6.70;99.90;;;;;;5096981;28;20024;-89
2021/03/21 00:10:05;;;;;;;6.78;3.92;;;6.60;99.90;;;;;;5078833;28;20021;-88
2021/03/21 00:12:31;;;;;;;5.78;4.30;;;6.60;99.90;;;;;;5079006;28;20057;-89
2021/03/21 00:14:57;;;;;;;6.00;4.10;;;6.60;99.90;;;;;;5082831;28;20019;-89
2021/03/21 00:17:23;;;;;;;8.48;4.22;;;6.60;99.90;;;;;;5106886;28;20027;-89
2021/03/21 00:19:48;;;;;;;4.50;3.28;;;6.60;99.90;;;;;;5078528;28;20457;-89
2021/03/21 00:22:14;;;;;;;4.53;3.35;;;6.50;99.90;;;;;;5078947;28;20093;-90
2021/03/21 00:24:39;;;;;;;4.50;3.00;;;6.50;99.90;;;;;;5095424;28;20024;-89
2021/03/21 00:27:05;;;;;;;6.10;3.85;;;6.50;99.90;;;;;;5078552;28;20016;-89
2021/03/21 00:29:30;;;;;;;4.60;3.08;;;6.50;99.90;;;;;;5096621;28;20442;-89
2021/03/21 00:31:56;;;;;;;4.65;3.00;;;6.50;99.90;;;;;;5093024;28;20496;-89
2021/03/21 00:34:21;;;;;;;6.68;3.22;;;6.40;99.90;;;;;;5078813;28;20020;-88
2021/03/21 00:36:47;;;;;;;6.95;2.55;;;6.40;99.90;;;;;;5096547;28;20061;-89
2021/03/21 00:39:12;;;;;;;6.30;2.85;;;6.40;99.90;;;;;;5096285;28;20028;-89
2021/03/21 00:41:38;;;;;;;3.13;2.40;;;6.40;99.90;;;;;;5096430;28;20053;-89
2021/03/21 00:44:04;;;;;;;7.93;2.67;;;6.40;99.90;;;;;;5078278;28;20115;-88
2021/03/21 00:46:30;;;;;;;5.43;2.28;;;6.30;99.90;;;;;;5095983;28;20115;-89
2021/03/21 00:48:56;;;;;;;5.35;2.30;;;6.30;99.90;;;;;;5078311;28;20016;-88
2021/03/21 00:51:22;;;;;;;2.85;2.05;;;6.30;99.90;;;;;;5063815;28;20020;-89
2021/03/21 00:53:47;;;;;;;4.63;2.25;;;6.30;99.90;;;;;;5078056;28;20031;-89
2021/03/21 00:56:32;;;;;;;4.32;2.10;;;6.30;99.90;;;;;;5096032;28;20065;-89
2021/03/21 00:58:58;;;;;;;3.15;1.92;;;6.40;99.90;;;;;;5077934;28;20386;-88
2021/03/21 01:01:25;;;;;;;3.38;1.92;;;6.30;99.90;;;;;;5096021;28;20020;-88
2021/03/21 01:03:50;;;;;;;3.95;2.05;;;6.30;99.90;;;;;;5095967;28;20020;-89
2021/03/21 01:06:16;;;;;;;4.75;2.50;;;6.30;99.90;;;;;;5077801;28;20074;-89
2021/03/21 01:08:43;;;;;;;4.60;2.10;;;6.30;99.90;;;;;;5077675;28;20024;-89
2021/03/21 01:11:17;;;;;;;3.35;2.08;;;6.30;99.90;;;;;;5095765;28;20020;-89
2021/03/21 01:13:43;;;;;;;5.28;2.10;;;6.30;99.90;;;;;;5095844;28;20046;-89
2021/03/21 01:16:19;;;;;;;3.78;2.50;;;6.30;99.90;;;;;;5077895;28;20020;-89
2021/03/21 01:18:45;;;;;;;5.20;2.42;;;6.30;99.90;;;;;;5095473;28;20483;-89
2021/03/21 01:21:11;;;;;;;2.15;1.88;;;6.30;99.90;;;;;;5095503;28;20058;-88
2021/03/21 01:23:42;;;;;;;3.20;1.85;;;6.20;99.90;;;;;;5077113;28;20506;-89
2021/03/21 01:26:13;;;;;;;3.90;1.70;;;6.30;99.90;;;;;;5077073;28;20028;-89
2021/03/21 01:28:40;;;;;;;3.95;2.40;;;6.30;99.90;;;;;;5095306;28;20077;-89
2021/03/21 01:31:10;;;;;;;4.95;2.63;;;6.20;99.90;;;;;;5077336;28;20012;-88
2021/03/21 01:33:35;;;;;;;;;;;6.20;99.90;;;;;;5078532;28;20087;-89
2021/03/21 01:36:05;;;;;;;5.93;2.78;;;6.10;99.90;;;;;;5095242;28;19947;-89
2021/03/21 01:38:31;;;;;;;4.13;2.47;;;6.00;99.90;;;;;;5077388;28;20020;-88
2021/03/21 01:41:01;;;;;;;3.95;2.00;;;6.00;99.90;;;;;;5095292;28;20055;-89
2021/03/21 01:43:31;;;;;;;3.55;2.30;;;6.00;99.90;;;;;;5095176;28;20052;-88
2021/03/21 01:45:58;;;;;;;4.88;3.00;;;6.00;99.90;;;;;;5094935;28;20051;-89
2021/03/21 01:48:32;;;;;;;4.00;2.17;;;5.90;99.90;;;;;;5077221;28;20022;-88
2021/03/21 01:51:01;;;;;;;2.65;2.00;;;5.90;99.90;;;;;;5077043;28;20024;-89
2021/03/21 01:53:30;;;;;;;2.83;2.13;;;5.90;99.90;;;;;;5094829;28;20016;-88
2021/03/21 01:55:56;;;;;;;4.38;2.10;;;5.90;99.90;;;;;;5076848;28;20090;-89
2021/03/21 01:58:24;;;;;;;4.38;2.17;;;5.90;99.90;;;;;;5094974;28;20049;-88
2021/03/21 02:00:53;;;;;;;6.15;2.72;;;5.90;99.90;;;;;;5077102;28;20055;-89
2021/03/21 02:03:19;;;;;;;3.97;2.70;;;5.90;99.90;;;;;;5076836;28;20020;-89
2021/03/21 02:05:45;;;;;;;4.88;2.72;;;5.80;99.90;;;;;;5094767;28;20053;-89
2021/03/21 02:08:14;;;;;;;3.97;2.97;;;5.90;99.90;;;;;;5076527;28;20031;-89
2021/03/21 02:11:24;;;;;;;4.88;3.28;;;5.90;99.90;;;;;;5076878;28;20122;-88
2021/03/21 02:14:17;;;;;;;5.18;4.03;;;5.90;99.90;;;;;;5054891;28;20066;-89
2021/03/21 02:17:01;;;;;;;5.63;4.13;;;5.90;99.90;;;;;;5076388;28;20063;-89
2021/03/21 02:19:35;;;;;;;8.52;4.78;;;5.90;99.90;;;;;;5076577;28;20024;-89
2021/03/21 02:22:04;;;;;;;6.40;4.45;;;5.90;99.90;;;;;;5062652;28;20022;-88
2021/03/21 02:24:36;;;;;;;6.55;5.78;;;6.00;99.90;;;;;;5076614;28;20020;-89
2021/03/21 02:27:17;;;;;;;7.45;6.22;;;6.00;99.90;;;;;;5063839;28;20116;-88
2021/03/21 02:30:07;;;;;;;9.00;6.60;;;6.00;99.90;;;;;;5104943;28;20024;-89
2021/03/21 02:32:36;;;;;;;11.85;7.50;;;6.10;99.90;;;;;;5076373;28;20399;-89
2021/03/21 02:35:15;;;;;;;11.35;8.85;;;6.00;99.90;;;;;;5076400;28;20027;-88
2021/03/21 02:37:44;;;;;;;;;;;6.10;99.90;;;;;;5094580;28;20020;-88
2021/03/21 02:40:39;;;;;;;9.95;8.68;;;6.00;99.90;;;;;;5094318;28;19925;-89
2021/03/21 02:43:22;;;;;;;11.05;9.05;;;6.00;99.90;;;;;;5064134;28;20365;-89
2021/03/21 02:45:51;;;;;;;12.45;10.45;;;6.00;99.90;;;;;;5075673;28;20047;-89
2021/03/21 02:48:27;;;;;;;13.40;10.55;;;6.00;99.90;;;;;;5075979;28;20471;-89
2021/03/21 02:50:57;;;;;;;12.82;10.18;;;6.10;99.90;;;;;;5076127;28;20020;-89
2021/03/21 02:53:42;;;;;;;15.13;12.50;;;6.10;99.90;;;;;;5076309;28;20024;-89
2021/03/21 02:56:12;;;;;;;18.90;14.50;;;6.10;99.90;;;;;;5108435;28;20540;-89
2021/03/21 02:58:47;;;;;;;;;;;6.10;99.90;;;;;;5076436;28;20024;-88
2021/03/21 03:01:20;;;;;;;22.45;17.25;;;6.00;99.90;;;;;;5076067;28;19911;-89
2021/03/21 03:03:49;;;;;;;26.77;20.30;;;6.00;99.90;;;;;;5075923;28;20035;-89
2021/03/21 03:06:21;;;;;;;27.27;21.30;;;6.00;99.90;;;;;;5076002;28;20119;-89
2021/03/21 03:08:52;;;;;;;31.27;22.55;;;6.10;99.90;;;;;;5093957;28;20020;-89
2021/03/21 03:11:23;;;;;;;31.75;23.60;;;6.10;99.90;;;;;;5093769;28;20035;-89
2021/03/21 03:13:57;;;;;;;38.80;26.48;;;6.10;99.90;;;;;;5076146;28;20017;-89
2021/03/21 03:16:41;;;;;;;39.53;27.58;;;6.20;99.90;;;;;;5075620;28;20024;-89
2021/03/21 03:19:48;;;;;;;41.58;27.33;;;6.20;99.90;;;;;;5093954;28;20042;-89
2021/03/21 03:22:21;;;;;;;44.30;29.52;;;6.20;99.90;;;;;;5056023;28;20090;-89
2021/03/21 03:24:53;;;;;;;47.20;31.52;;;6.20;99.90;;;;;;5055875;28;20025;-89
2021/03/21 03:27:38;;;;;;;47.58;31.58;;;6.20;99.90;;;;;;5073790;28;20078;-89
2021/03/21 03:30:10;;;;;;;41.33;28.63;;;6.30;99.90;;;;;;5055993;28;20028;-89
2021/03/21 03:32:35;;;;;;;47.85;32.33;;;6.30;99.90;;;;;;5055886;28;20021;-89
2021/03/21 03:35:02;;;;;;;46.10;29.80;;;6.30;99.90;;;;;;5055958;28;20020;-89
2021/03/21 03:37:28;;;;;;;47.33;30.77;;;6.30;99.90;;;;;;5073833;28;20074;-89
2021/03/21 03:39:54;;;;;;;46.15;31.60;;;6.30;99.90;;;;;;5055746;28;20396;-88
2021/03/21 03:42:31;;;;;;;47.25;31.55;;;6.30;99.90;;;;;;5055896;28;20107;-89
2021/03/21 03:45:18;;;;;;;42.78;29.55;;;6.30;99.90;;;;;;5055680;28;20033;-89
2021/03/21 03:48:08;;;;;;;45.55;29.05;;;6.30;99.90;;;;;;5073556;28;20070;-89
2021/03/21 03:50:50;;;;;;;49.80;32.15;;;6.20;99.90;;;;;;5055893;28;20069;-89
2021/03/21 03:53:42;;;;;;;41.90;28.40;;;6.20;99.90;;;;;;5073429;28;20547;-89
2021/03/21 03:56:17;;;;;;;47.47;28.98;;;6.10;99.90;;;;;;5073355;28;20031;-90
2021/03/21 03:59:05;;;;;;;44.78;29.15;;;6.10;99.90;;;;;;5057960;28;20373;-89
2021/03/21 04:01:52;;;;;;;47.97;30.13;;;6.20;99.90;;;;;;5077206;28;20027;-88
2021/03/21 04:04:47;;;;;;;46.28;31.08;;;6.10;99.90;;;;;;5077251;28;20120;-89
2021/03/21 04:07:21;;;;;;;49.88;31.00;;;6.10;99.90;;;;;;5077097;28;20024;-89
2021/03/21 04:09:53;;;;;;;45.67;30.27;;;6.10;99.90;;;;;;5059175;28;20029;-89
2021/03/21 04:12:41;;;;;;;48.20;31.35;;;6.10;99.90;;;;;;5059074;28;20040;-89
2021/03/21 04:15:15;;;;;;;47.15;31.27;;;6.10;99.90;;;;;;5082315;28;20044;-89
2021/03/21 04:17:50;;;;;;;47.88;31.45;;;6.10;99.90;;;;;;5078964;28;20028;-89
2021/03/21 04:20:23;;;;;;;49.45;31.60;;;6.10;99.90;;;;;;5079395;28;20043;-89
2021/03/21 04:23:06;;;;;;;44.58;29.85;;;6.10;99.90;;;;;;5079318;28;20024;-89
2021/03/21 04:25:38;;;;;;;49.35;32.42;;;6.10;99.90;;;;;;5079050;28;20032;-89
2021/03/21 04:28:32;;;;;;;46.55;31.35;;;6.20;99.90;;;;;;5097039;28;20020;-88
2021/03/21 04:31:02;;;;;;;46.05;30.73;;;6.10;99.90;;;;;;5079093;28;20028;-89
2021/03/21 04:33:33;;;;;;;51.92;32.80;;;6.20;99.90;;;;;;5097195;28;20028;-89
2021/03/21 04:36:04;;;;;;;45.28;29.25;;;6.20;99.90;;;;;;5079091;28;20028;-89
2021/03/21 04:38:35;;;;;;;43.38;28.98;;;6.20;99.90;;;;;;5097138;28;20111;-89
2021/03/21 04:41:02;;;;;;;46.42;28.83;;;6.20;99.90;;;;;;5078674;28;20052;-90
2021/03/21 04:43:36;;;;;;;43.60;28.17;;;6.20;99.90;;;;;;5096728;28;20077;-90
2021/03/21 04:46:07;;;;;;;39.55;27.67;;;6.30;99.90;;;;;;5075105;28;20044;-89
2021/03/21 04:48:33;;;;;;;40.20;26.75;;;6.30;99.90;;;;;;5075393;28;20032;-89
2021/03/21 04:51:06;;;;;;;37.75;24.73;;;6.30;99.90;;;;;;5075502;28;20025;-89
2021/03/21 04:53:43;;;;;;;35.63;23.73;;;6.40;99.90;;;;;;5076265;28;20028;-89
2021/03/21 04:56:32;;;;;;;38.42;23.85;;;6.40;99.90;;;;;;5075158;28;20036;-89
2021/03/21 04:59:16;;;;;;;34.67;22.63;;;6.40;99.90;;;;;;5075078;28;20025;-89
2021/03/21 05:01:57;;;;;;;34.40;22.42;;;6.40;99.90;;;;;;5074945;28;20029;-90
2021/03/21 05:04:31;;;;;;;30.60;20.02;;;6.40;99.90;;;;;;5075242;28;20024;-89
2021/03/21 05:07:06;;;;;;;28.15;18.98;;;6.50;99.90;;;;;;5074934;28;20020;-89
2021/03/21 05:09:42;;;;;;;28.42;20.10;;;6.50;99.90;;;;;;5074692;28;20060;-89
2021/03/21 05:12:31;;;;;;;30.20;20.75;;;6.50;99.90;;;;;;5075883;28;20021;-89
2021/03/21 05:15:05;;;;;;;28.88;19.33;;;6.60;99.90;;;;;;5075786;28;20028;-89
2021/03/21 05:17:42;;;;;;;30.02;19.33;;;6.60;99.90;;;;;;5076020;28;20040;-89
2021/03/21 05:20:10;;;;;;;29.13;19.75;;;6.60;99.90;;;;;;5074876;28;20024;-89
2021/03/21 05:23:05;;;;;;;28.92;19.20;;;6.60;99.90;;;;;;5075563;28;20488;-89
2021/03/21 05:25:36;;;;;;;25.95;17.95;;;6.60;99.90;;;;;;5053088;28;20064;-90
2021/03/21 05:28:13;;;;;;;25.38;16.10;;;6.60;99.90;;;;;;5074491;28;20032;-90
2021/03/21 05:30:39;;;;;;;21.50;14.25;;;6.60;99.90;;;;;;5074684;28;20051;-89
2021/03/21 05:33:05;;;;;;;19.55;13.30;;;6.70;99.90;;;;;;5074577;28;20384;-90
2021/03/21 05:35:33;;;;;;;21.98;12.40;;;6.70;99.90;;;;;;5075670;28;20032;-89
2021/03/21 05:38:05;;;;;;;21.08;12.82;;;6.80;99.90;;;;;;5074660;28;20076;-90
2021/03/21 05:41:21;;;;;;;19.83;11.82;;;6.80;99.90;;;;;;5074472;28;20116;-90
2021/03/21 05:44:05;;;;;;;18.17;10.98;;;6.80;99.90;;;;;;5074502;28;20502;-89
2021/03/21 05:46:49;;;;;;;17.30;10.73;;;6.80;99.90;;;;;;5074240;28;20040;-90
2021/03/21 05:49:43;;;;;;;17.85;9.90;;;6.80;99.90;;;;;;5074525;28;20024;-89
2021/03/21 05:52:20;;;;;;;15.35;8.73;;;6.80;99.90;;;;;;5074237;28;20074;-89
2021/03/21 05:55:08;;;;;;;15.73;8.32;;;6.80;99.90;;;;;;5074345;28;20024;-90
2021/03/21 05:58:09;;;;;;;14.00;7.57;;;6.90;99.90;;;;;;5075245;28;20020;-88
2021/03/21 06:00:54;;;;;;;12.13;6.25;;;6.90;99.90;;;;;;5075160;28;20020;-90
2021/03/21 06:03:26;;;;;;;9.88;5.43;;;6.90;99.90;;;;;;5074255;28;20491;-90
2021/03/21 06:06:29;;;;;;;12.80;5.72;;;6.90;99.90;;;;;;5074230;28;20115;-90
2021/03/21 06:09:22;;;;;;;11.70;4.88;;;7.00;99.90;;;;;;5042759;28;20025;-89
2021/03/21 06:11:56;;;;;;;10.10;4.28;;;7.00;99.90;;;;;;5053982;28;20024;-89
2021/03/21 06:14:39;;;;;;;10.38;4.97;;;7.00;99.90;;;;;;5055039;28;20028;-89
2021/03/21 06:17:15;;;;;;;9.52;3.83;;;7.00;99.90;;;;;;5053809;28;20086;-89
2021/03/21 06:20:17;;;;;;;6.72;3.17;;;7.00;99.90;;;;;;5055021;28;20071;-90
2021/03/21 06:23:12;;;;;;;11.13;2.97;;;7.10;99.90;;;;;;5052632;28;20484;-88
2021/03/21 06:25:43;;;;;;;8.80;2.30;;;7.10;99.90;;;;;;5053361;28;20025;-90
2021/03/21 06:28:23;;;;;;;6.57;2.63;;;7.00;99.90;;;;;;5053010;28;20021;-89
2021/03/21 06:31:26;;;;;;;5.60;2.40;;;7.10;99.90;;;;;;5054515;28;20053;-89
2021/03/21 06:34:08;;;;;;;8.50;2.65;;;7.10;99.90;;;;;;5053535;28;20047;-90
2021/03/21 06:36:44;;;;;;;10.82;2.83;;;7.10;99.90;;;;;;5053031;28;20033;-89
2021/03/21 06:39:24;;;;;;;6.35;2.55;;;7.10;99.90;;;;;;5054259;28;20013;-89
2021/03/21 06:42:13;;;;;;;5.20;2.22;;;7.10;99.90;;;;;;5053275;28;20071;-90
2021/03/21 06:44:39;;;;;;;6.95;2.20;;;7.20;99.90;;;;;;5052861;28;20087;-90
2021/03/21 06:47:07;;;;;;;11.38;2.83;;;7.20;99.90;;;;;;5066075;28;20040;-90
2021/03/21 06:49:42;;;;;;;5.60;1.67;;;7.20;99.90;;;;;;5074411;28;20028;-90
2021/03/21 06:52:26;;;;;;;9.02;1.70;;;7.30;99.90;;;;;;5056104;28;20070;-84
2021/03/21 06:55:02;;;;;;;2.20;1.33;;;7.30;99.90;;;;;;5073057;28;20028;-84
2021/03/21 06:58:12;;;;;;;5.95;1.50;;;7.30;99.90;;;;;;5073057;28;20028;-83
2021/03/21 07:00:50;;;;;;;;;;;7.30;99.90;;;;;;5055508;28;20077;-84
2021/03/21 07:03:49;;;;;;;7.28;1.60;;;7.30;99.90;;;;;;5054860;28;19908;-84
2021/03/21 07:06:36;;;;;;;4.23;0.93;;;7.30;99.90;;;;;;5055072;28;20060;-84
2021/03/21 07:09:39;;;;;;;7.43;1.00;;;7.30;99.90;;;;;;5055108;28;20028;-84
2021/03/21 07:12:26;;;;;;;6.13;1.38;;;7.40;99.90;;;;;;5073152;28;20032;-84
2021/03/21 07:15:28;;;;;;;6.47;0.93;;;7.40;99.90;;;;;;5057937;28;20025;-84
2021/03/21 07:18:25;;;;;;;5.53;0.82;;;7.40;99.90;;;;;;5074938;28;20044;-83
2021/03/21 07:21:34;;;;;;;9.55;1.42;;;7.40;99.90;;;;;;5075004;28;20073;-84
2021/03/21 07:24:19;;;;;;;6.60;1.52;;;7.40;99.90;;;;;;5074939;28;20077;-84
2021/03/21 07:27:14;;;;;;;9.32;1.05;;;7.50;99.90;;;;;;5074841;28;20032;-83
2021/03/21 07:29:46;;;;;;;6.55;1.10;;;7.50;99.90;;;;;;5074598;28;20024;-84
2021/03/21 07:32:25;;;;;;;10.25;2.88;;;7.60;99.90;;;;;;5074866;28;20074;-83
2021/03/21 07:35:02;;;;;;;5.50;1.10;;;7.60;99.90;;;;;;5076893;28;20028;-82
2021/03/21 07:37:37;;;;;;;5.55;0.90;;;7.60;99.90;;;;;;5094736;28;20023;-81
2021/03/21 07:40:13;;;;;;;9.80;1.85;;;7.60;99.90;;;;;;5075824;28;20043;-82
2021/03/21 07:42:51;;;;;;;8.40;1.10;;;7.70;99.90;;;;;;5078294;28;20046;-81
2021/03/21 07:45:34;;;;;;;10.13;1.50;;;7.70;99.90;;;;;;5077846;28;20031;-82
2021/03/21 07:48:09;;;;;;;11.20;2.05;;;7.80;99.90;;;;;;5077973;28;20044;-81
2021/03/21 07:50:51;;;;;;;9.35;1.75;;;7.80;99.90;;;;;;5078086;28;20032;-81
2021/03/21 07:53:28;;;;;;;6.28;1.17;;;7.80;99.90;;;;;;5095554;28;20020;-87
2021/03/21 07:56:20;;;;;;;6.40;1.00;;;7.90;99.90;;;;;;5095643;28;20424;-84
2021/03/21 07:59:01;;;;;;;8.13;1.08;;;7.90;99.90;;;;;;5094096;28;20008;-84
2021/03/21 08:01:27;;;;;;;7.28;1.13;;;8.00;99.90;;;;;;5094144;28;20020;-83
2021/03/21 08:03:59;;;;;;;8.80;1.05;;;8.00;99.90;;;;;;5077658;28;20020;-85
2021/03/21 08:06:48;;;;;;;8.40;1.30;;;8.10;99.90;;;;;;5066448;28;20050;-83
2021/03/21 08:09:19;;;;;;;11.52;2.05;;;8.20;99.90;;;;;;5093226;28;20031;-83
2021/03/21 08:11:58;;;;;;;14.23;2.60;;;8.10;99.90;;;;;;5077287;28;20372;-87
2021/03/21 08:14:37;;;;;;;6.18;0.85;;;8.20;99.90;;;;;;5096222;28;20111;-84
2021/03/21 08:17:07;;;;;;;9.32;1.33;;;8.30;99.90;;;;;;5075875;28;20032;-84
2021/03/21 08:19:35;;;;;;;10.13;1.20;;;8.30;99.90;;;;;;5057925;28;20032;-84
2021/03/21 08:22:02;;;;;;;8.57;1.73;;;8.40;99.90;;;;;;5075895;28;20023;-84
2021/03/21 08:24:34;;;;;;;7.95;1.27;;;8.50;99.90;;;;;;5057709;28;20016;-82
2021/03/21 08:27:02;;;;;;;12.25;1.35;;;8.50;99.30;;;;;;5057874;28;20032;-81
2021/03/21 08:29:49;;;;;;;8.43;1.48;;;8.40;99.00;;;;;;5091187;28;20027;-82
2021/03/21 08:32:14;;;;;;;12.05;1.30;;;8.40;98.60;;;;;;5077121;28;20026;-83
2021/03/21 08:34:45;;;;;;;9.45;1.30;;;8.50;98.60;;;;;;5077161;28;20032;-81
2021/03/21 08:37:19;;;;;;;14.77;2.05;;;8.50;98.20;;;;;;5074615;28;20008;-81
2021/03/21 08:39:52;;;;;;;6.60;1.48;;;8.40;97.70;;;;;;5095103;28;20024;-81
2021/03/21 08:42:26;;;;;;;7.57;1.42;;;8.50;98.10;;;;;;5093031;28;20016;-81
2021/03/21 08:45:20;;;;;;;10.45;1.58;;;8.50;97.30;;;;;;5065216;28;20026;-81
2021/03/21 08:47:53;;;;;;;13.45;2.50;;;8.50;97.00;;;;;;5088777;28;20044;-81
2021/03/21 08:50:32;;;;;;;14.15;2.90;;;8.50;96.30;;;;;;5073600;28;20054;-82
2021/03/21 08:52:58;;;;;;;9.27;2.17;;;8.50;95.70;;;;;;5071739;28;20098;-85
2021/03/21 08:55:37;;;;;;;13.63;2.15;;;8.40;95.50;;;;;;5073423;28;20048;-81
2021/03/21 08:58:24;;;;;;;17.27;2.53;;;8.50;95.00;;;;;;5073168;28;20638;-81
2021/03/21 09:00:50;;;;;;;15.05;3.00;;;8.50;94.80;;;;;;5072233;28;20028;-81
2021/03/21 09:03:30;;;;;;;21.70;2.58;;;8.40;95.00;;;;;;5073315;28;20025;-81
2021/03/21 09:05:58;;;;;;;11.45;2.38;;;8.40;94.40;;;;;;5073569;28;20025;-82
2021/03/21 09:08:28;;;;;;;18.83;2.83;;;8.40;94.20;;;;;;5073787;28;20032;-82
2021/03/21 09:11:02;;;;;;;12.15;2.15;;;8.50;94.30;;;;;;5073688;28;20020;-82
2021/03/21 09:13:31;;;;;;;16.08;2.75;;;8.50;94.40;;;;;;5073659;28;20028;-82
2021/03/21 09:15:57;;;;;;;11.07;2.58;;;8.50;94.30;;;;;;5074649;28;20024;-81
2021/03/21 09:18:27;;;;;;;16.98;2.38;;;8.50;94.60;;;;;;5073439;28;20051;-82
2021/03/21 09:20:55;;;;;;;14.30;2.67;;;8.50;94.40;;;;;;5073438;28;20574;-81
2021/03/21 09:23:31;;;;;;;11.57;2.10;;;8.40;94.60;;;;;;5073402;28;20017;-82
2021/03/21 09:25:57;;;;;;;16.52;2.85;;;8.50;94.90;;;;;;5072861;28;20025;-85
2021/03/21 09:28:26;;;;;;;12.02;2.22;;;8.40;95.10;;;;;;5070210;28;20032;-82
2021/03/21 09:30:53;;;;;;;18.27;4.03;;;8.50;95.20;;;;;;5072593;28;20043;-82
2021/03/21 09:33:35;;;;;;;12.25;3.33;;;8.50;94.60;;;;;;5073803;28;20066;-81
2021/03/21 09:36:14;;;;;;;12.63;2.15;;;8.50;94.50;;;;;;5059842;28;20481;-81
2021/03/21 09:38:52;;;;;;;21.77;3.05;;;8.50;94.70;;;;;;5054222;28;20025;-80
2021/03/21 09:41:18;;;;;;;21.38;3.33;;;8.50;94.70;;;;;;5054776;28;20041;-83
2021/03/21 09:43:48;;;;;;;24.58;3.90;;;8.50;94.60;;;;;;5052524;28;20389;-81
2021/03/21 09:46:46;;;;;;;18.25;3.13;;;8.50;94.50;;;;;;5057625;28;20106;-82
2021/03/21 09:49:21;;;;;;;17.08;3.28;;;8.50;94.70;;;;;;5073656;28;20036;-80
2021/03/21 09:51:51;;;;;;;19.25;3.42;;;8.60;95.00;;;;;;5059306;28;20025;-80
2021/03/21 09:54:28;;;;;;;;;;;8.70;94.80;;;;;;5072305;28;20068;-80
2021/03/21 09:57:34;;;;;;;26.58;4.68;;;8.70;94.80;;;;;;5072792;28;20356;-80
2021/03/21 10:00:12;;;;;;;29.77;3.78;;;8.70;94.70;;;;;;5072016;28;20029;-81
2021/03/21 10:02:50;;;;;;;16.08;3.10;;;8.70;94.00;;;;;;5073038;28;20021;-80
2021/03/21 10:05:29;;;;;;;16.10;3.70;;;8.70;93.70;;;;;;5072319;28;20029;-81
2021/03/21 10:08:35;;;;;;;15.02;3.45;;;8.70;93.80;;;;;;5069217;28;20383;-82
2021/03/21 10:11:07;;;;;;;18.23;4.07;;;8.80;93.30;;;;;;5060243;28;20090;-80
2021/03/21 10:13:38;;;;;;;20.35;3.42;;;8.70;92.80;;;;;;5071912;28;20051;-80
2021/03/21 10:16:11;;;;;;;19.77;4.68;;;8.80;92.10;;;;;;5071700;28;20395;-82
2021/03/21 10:18:43;;;;;;;16.08;3.13;;;9.10;90.80;;;;;;5071247;28;20021;-81
2021/03/21 10:21:10;;;;;;;21.73;3.63;;;9.60;89.50;;;;;;5072396;28;20021;-82
2021/03/21 10:23:59;;;;;;;19.88;4.63;;;10.20;86.10;;;;;;5071530;28;20473;-81
2021/03/21 10:26:30;;;;;;;15.80;3.28;;;10.50;83.00;;;;;;5071387;28;20052;-82
2021/03/21 10:29:02;;;;;;;9.95;2.80;;;10.60;82.10;;;;;;5072655;28;20063;-82
2021/03/21 10:31:31;;;;;;;13.85;3.03;;;10.60;80.10;;;;;;5072730;28;20063;-82
2021/03/21 10:34:02;;;;;;;17.17;3.13;;;10.70;81.30;;;;;;5070196;28;20045;-81
2021/03/21 10:36:41;;;;;;;19.77;3.75;;;10.60;81.20;;;;;;5064718;28;20024;-80
2021/03/21 10:39:24;;;;;;;12.35;3.28;;;10.40;80.80;;;;;;5054689;28;20366;-80
2021/03/21 10:42:08;;;;;;;17.60;4.20;;;10.30;82.10;;;;;;5052927;28;20025;-81
2021/03/21 10:44:37;;;;;;;13.40;2.65;;;10.20;81.40;;;;;;5067402;28;20020;-82
2021/03/21 10:47:08;;;;;;;20.63;3.65;;;10.10;82.10;;;;;;5071385;28;20507;-79
2021/03/21 10:50:07;;;;;;;18.45;3.65;;;9.90;82.30;;;;;;5069408;28;20032;-82
2021/03/21 10:52:44;;;;;;;18.13;3.03;;;9.90;82.40;;;;;;5033489;28;20537;-81
2021/03/21 10:55:17;;;;;;;15.90;4.05;;;9.80;82.80;;;;;;5070997;28;20024;-81
2021/03/21 10:57:43;;;;;;;20.83;3.17;;;9.70;84.10;;;;;;5070641;28;20013;-80
2021/03/21 11:00:11;;;;;;;19.92;3.30;;;9.60;84.00;;;;;;5071151;28;20047;-81
2021/03/21 11:02:36;;;;;;;17.55;4.85;;;9.50;83.70;;;;;;5070942;28;20021;-80
2021/03/21 11:05:20;;;;;;;17.35;3.05;;;9.40;83.50;;;;;;5067622;28;20058;-79
2021/03/21 11:07:47;;;;;;;14.45;3.35;;;9.50;83.90;;;;;;5047221;28;20028;-79
2021/03/21 11:10:14;;;;;;;11.38;2.35;;;9.70;83.20;;;;;;5055268;28;20055;-80
2021/03/21 11:12:42;;;;;;;13.63;3.17;;;10.00;83.40;;;;;;5066704;28;20025;-80
2021/03/21 11:15:38;;;;;;;16.50;3.83;;;10.10;82.30;;;;;;5054228;28;20144;-81
2021/03/21 11:18:19;;;;;;;18.48;3.60;;;10.30;82.10;;;;;;5057573;28;20029;-80
2021/03/21 11:20:45;;;;;;;13.38;3.08;;;10.30;81.40;;;;;;5053974;28;20017;-82
2021/03/21 11:23:22;;;;;;;12.73;3.15;;;10.30;80.30;;;;;;5055433;28;20021;-80
2021/03/21 11:25:49;;;;;;;17.35;3.40;;;10.20;80.40;;;;;;5051381;28;20400;-80
2021/03/21 11:28:37;;;;;;;20.85;3.58;;;10.10;80.50;;;;;;5051934;28;20561;-81
2021/03/21 11:31:08;;;;;;;14.35;3.00;;;10.00;81.10;;;;;;5069209;28;20427;-81
2021/03/21 11:33:43;;;;;;;18.10;3.45;;;9.90;82.20;;;;;;5070529;28;20033;-81
2021/03/21 11:36:31;;;;;;;18.98;3.65;;;9.80;81.40;;;;;;5070240;28;20028;-80
2021/03/21 11:38:57;;;;;;;16.52;3.40;;;9.80;80.70;;;;;;5080062;28;20016;-80
2021/03/21 11:41:29;;;;;;;21.13;4.80;;;9.90;79.70;;;;;;5070825;28;20139;-81
2021/03/21 11:44:18;;;;;;;18.55;3.40;;;10.00;78.70;;;;;;5067750;28;20017;-80
2021/03/21 11:46:44;;;;;;;14.43;3.40;;;10.00;78.50;;;;;;5067539;28;20053;-81
2021/03/21 11:49:10;;;;;;;16.60;3.42;;;10.00;79.00;;;;;;5067896;28;20095;-81
2021/03/21 11:51:38;;;;;;;10.43;2.45;;;10.10;79.20;;;;;;5070384;28;20037;-82
2021/03/21 11:54:05;;;;;;;18.50;3.83;;;10.30;79.00;;;;;;5054386;28;20036;-82
2021/03/21 11:56:49;;;;;;;21.33;3.90;;;10.40;78.10;;;;;;5068225;28;20541;-81
2021/03/21 11:59:22;;;;;;;16.02;3.15;;;10.50;76.90;;;;;;5071672;28;20503;-81
2021/03/21 12:01:51;;;;;;;19.05;3.33;;;10.30;76.70;;;;;;5071815;28;20028;-81
2021/03/21 12:04:39;;;;;;;18.05;4.07;;;10.20;77.30;;;;;;5070239;28;20036;-80
2021/03/21 12:07:08;;;;;;;17.33;3.30;;;10.20;78.20;;;;;;5064693;28;20096;-81
2021/03/21 12:09:36;;;;;;;15.68;3.10;;;10.10;79.30;;;;;;5053443;28;20029;-81
2021/03/21 12:12:28;;;;;;;14.95;2.95;;;10.10;78.00;;;;;;5050755;28;20045;-81
2021/03/21 12:14:53;;;;;;;17.58;4.90;;;10.10;78.00;;;;;;5052691;28;20476;-81
2021/03/21 12:17:22;;;;;;;12.65;3.28;;;10.00;76.20;;;;;;5050641;28;20028;-81
2021/03/21 12:19:48;;;;;;;21.90;3.42;;;10.40;76.60;;;;;;5054444;28;20024;-80
2021/03/21 12:22:36;;;;;;;17.73;3.92;;;10.50;74.00;;;;;;5057385;28;20131;-81
2021/03/21 12:25:21;;;;;;;14.73;3.60;;;10.40;74.20;;;;;;5069816;28;20017;-81
2021/03/21 12:27:47;;;;;;;17.17;3.33;;;10.20;73.90;;;;;;5069376;28;20055;-80
2021/03/21 12:30:34;;;;;;;16.60;3.10;;;10.20;75.70;;;;;;5054518;28;20036;-81
2021/03/21 12:33:25;;;;;;;19.45;3.13;;;10.20;75.50;;;;;;5054338;28;20472;-81
2021/03/21 12:35:52;;;;;;;15.30;3.42;;;10.20;76.70;;;;;;5056431;28;20028;-81
2021/03/21 12:38:39;;;;;;;18.35;3.45;;;10.20;78.10;;;;;;5069835;28;20451;-81
2021/03/21 12:41:23;;;;;;;18.95;3.58;;;10.10;77.10;;;;;;5053457;28;20021;-81
2021/03/21 12:44:09;;;;;;;21.88;3.38;;;10.10;77.10;;;;;;5053156;28;20017;-80
2021/03/21 12:46:47;;;;;;;12.57;3.05;;;10.10;77.30;;;;;;5066978;28;20045;-81
2021/03/21 12:49:29;;;;;;;19.65;4.50;;;10.20;77.80;;;;;;5056185;28;20059;-80
2021/03/21 12:52:00;;;;;;;15.45;3.17;;;10.20;77.60;;;;;;5067430;28;20017;-81
2021/03/21 12:54:26;;;;;;;21.33;3.85;;;10.10;78.20;;;;;;5054648;28;20033;-81
2021/03/21 12:56:51;;;;;;;20.50;4.20;;;10.00;78.20;;;;;;5053106;28;20044;-81
2021/03/21 12:59:17;;;;;;;20.35;4.97;;;10.00;77.50;;;;;;5054405;28;20508;-80
2021/03/21 13:01:45;;;;;;;16.92;3.60;;;10.00;77.70;;;;;;5056267;28;20067;-80
2021/03/21 13:04:10;;;;;;;22.40;5.10;;;9.90;77.90;;;;;;5054968;28;20013;-80
2021/03/21 13:06:37;;;;;;;19.10;3.30;;;9.90;78.30;;;;;;5055547;28;20039;-80
2021/03/21 13:09:02;;;;;;;17.52;5.18;;;9.90;78.90;;;;;;5053935;28;20071;-80
2021/03/21 13:11:28;;;;;;;27.42;5.07;;;10.00;79.30;;;;;;5057493;28;20032;-81
2021/03/21 13:13:53;;;;;;;15.32;4.05;;;10.00;79.40;;;;;;5053130;28;20024;-81
2021/03/21 13:16:19;;;;;;;17.42;4.28;;;9.90;78.40;;;;;;5054407;28;20071;-81
2021/03/21 13:18:44;;;;;;;23.48;4.50;;;9.80;78.00;;;;;;5055896;28;20024;-81
2021/03/21 13:21:10;;;;;;;19.92;3.95;;;9.80;77.80;;;;;;5054647;28;20416;-82
2021/03/21 13:23:35;;;;;;;18.33;3.53;;;9.90;77.70;;;;;;5055627;28;20060;-81
2021/03/21 13:26:01;;;;;;;18.65;3.97;;;10.00;76.90;;;;;;5054865;28;20025;-81
2021/03/21 13:28:26;;;;;;;20.63;3.80;;;10.10;76.30;;;;;;5053949;28;20427;-81
2021/03/21 13:30:52;;;;;;;18.10;3.83;;;10.10;76.40;;;;;;5054704;28;20025;-79